Time;durP1;ratioP1;P1;durP2;ratioP2;P2;SDS_P1;SDS_P2;PMS_P1;PMS_P2;Temp;Humidity;BMP_temperature;BMP_pressure;BME280_temperature;BME280_humidity;BME280_pressure;Samples;Min_cycle;Max_cycle;Signal;HPM_P1;HPM_P2
2021/01/15 00:02:03;;;;;;;15.23;10.40;;;;;;;-1.78;73.29;95597.31;4982063;28;20052;-90
2021/01/15 00:04:30;;;;;;;13.85;8.52;;;;;;;-1.68;72.21;95603.72;4997073;28;20026;-90
2021/01/15 00:07:03;;;;;;;16.88;10.25;;;;;;;-1.69;73.35;95605.63;4996011;28;20022;-89
2021/01/15 00:09:29;;;;;;;13.35;8.63;;;;;;;-1.68;73.28;95614.34;4978698;28;20067;-90
2021/01/15 00:11:54;;;;;;;16.20;9.27;;;;;;;-1.68;73.28;95614.34;4979454;28;20077;-90
2021/01/15 00:14:20;;;;;;;13.30;8.30;;;;;;;-1.67;72.94;95613.97;4997491;28;20088;-90
2021/01/15 00:16:45;;;;;;;14.05;8.05;;;;;;;-1.73;72.21;95586.25;4996051;28;20026;-89
2021/01/15 00:19:11;;;;;;;15.10;8.60;;;;;;;-145.61;71.54;81850.75;4989898;28;20121;-90
2021/01/15 00:21:47;;;;;;;15.48;8.50;;;;;;;-1.32;71.54;95650.16;4998869;28;20041;-90
2021/01/15 00:24:14;;;;;;;16.83;9.52;;;;;;;-1.39;72.84;95647.53;4997180;28;20033;-90
2021/01/15 00:26:40;;;;;;;18.50;11.15;;;;;;;-1.39;72.84;95647.53;4996513;28;20022;-89
2021/01/15 00:29:43;;;;;;;25.42;13.88;;;;;;;-1.39;72.84;95647.53;4994380;28;20117;-90
2021/01/15 00:32:09;;;;;;;30.67;15.98;;;;;;;-1.43;100.00;95635.44;4987741;28;20050;-89
2021/01/15 00:34:34;;;;;;;35.58;17.80;;;;;;;-1.65;74.77;95610.88;4996746;28;20162;-90
2021/01/15 00:36:59;;;;;;;33.90;18.33;;;;;;;-1.95;100.00;68426.72;4979038;28;20415;-89
2021/01/15 00:39:25;;;;;;;31.13;16.88;;;;;;;-1.95;74.00;95583.03;4977412;28;20041;-90
2021/01/15 00:41:51;;;;;;;28.08;16.63;;;;;;;-1.86;74.96;95583.34;4977548;28;20031;-90
2021/01/15 00:44:16;;;;;;;17.23;11.55;;;;;;;-1.96;73.38;95576.19;4977480;28;20030;-90
2021/01/15 00:46:45;;;;;;;19.02;11.63;;;;;;;-1.26;73.47;95681.69;4977341;28;20041;-90
2021/01/15 00:49:12;;;;;;;19.33;12.07;;;;;;;-1.68;100.00;95604.47;4987840;28;20039;-90
2021/01/15 00:51:38;;;;;;;18.08;11.32;;;;;;;-1.69;100.00;68426.72;4996713;28;20028;-90
2021/01/15 00:54:04;;;;;;;17.08;11.77;;;;;;;-1.78;100.00;68426.72;5013066;28;20422;-90
2021/01/15 00:56:30;;;;;;;20.55;11.70;;;;;;;-1.28;74.70;95673.34;5012134;28;20370;-89
2021/01/15 00:58:56;;;;;;;23.40;13.40;;;;;;;-1.28;74.70;95673.34;5006473;28;20022;-90
2021/01/15 01:01:23;;;;;;;21.50;13.30;;;;;;;-1.51;74.88;95629.41;5016159;28;20433;-90
2021/01/15 01:03:50;;;;;;;24.67;14.35;;;;;;;-1.58;75.03;95635.56;5007145;28;20502;-89
2021/01/15 01:06:18;;;;;;;22.73;13.88;;;;;;;-1.22;74.56;95677.84;4998901;28;20045;-90
2021/01/15 01:08:43;;;;;;;21.45;14.20;;;;;;;-1.20;74.96;95675.53;5010556;28;20438;-89
2021/01/15 01:11:20;;;;;;;23.60;13.60;;;;;;;-1.23;73.86;95670.22;4979162;28;20026;-90
2021/01/15 01:13:51;;;;;;;23.55;14.20;;;;;;;-1.20;74.31;95672.13;4992041;28;20041;-90
2021/01/15 01:16:17;;;;;;;22.25;13.98;;;;;;;-1.22;75.04;95682.44;4997104;28;20030;-90
2021/01/15 01:22:06;;;;;;;20.20;12.20;;;;;;;-1.64;75.22;95615.09;4978167;28;20045;-90
2021/01/15 01:24:31;;;;;;;19.60;11.93;;;;;;;-1.24;75.97;95660.72;4981278;28;20303;-90
2021/01/15 01:26:56;;;;;;;18.80;12.23;;;;;;;-1.70;74.86;95595.38;4999287;28;20153;-90
2021/01/15 01:29:22;;;;;;;18.70;10.95;;;;;;;-1.37;74.63;95645.25;4996385;28;21130;-90
2021/01/15 01:31:47;;;;;;;18.27;12.07;;;;;;;-1.70;75.07;95598.78;4995874;28;20026;-90
2021/01/15 01:34:13;;;;;;;19.30;11.75;;;;;;;-1.65;75.53;95592.25;4996365;28;20466;-91
2021/01/15 01:36:38;;;;;;;17.33;11.35;;;;;;;-1.51;74.65;95624.06;4996513;28;20080;-90
2021/01/15 01:39:03;;;;;;;20.48;12.25;;;;;;;-1.65;75.34;95626.88;4996159;28;20433;-90
2021/01/15 01:41:29;;;;;;;19.00;11.65;;;;;;;-1.86;76.72;95594.00;4996395;28;20026;-90
2021/01/15 01:43:54;;;;;;;19.88;12.77;;;;;;;-1.54;76.39;95630.22;4992170;28;20300;-90
2021/01/15 01:46:21;;;;;;;19.02;12.05;;;;;;;-1.92;76.01;95571.59;4981977;28;20054;-90
2021/01/15 01:48:46;;;;;;;18.50;11.90;;;;;;;-1.67;75.93;95613.97;5000716;28;20061;-89
2021/01/15 01:51:11;;;;;;;19.15;11.88;;;;;;;-1.41;76.49;95627.78;5000832;28;20405;-90
2021/01/15 01:53:38;;;;;;;20.20;12.23;;;;;;;-1.58;76.79;95608.94;4988405;28;20383;-89
2021/01/15 01:56:04;;;;;;;18.45;12.07;;;;;;;-1.35;75.99;95648.28;4980397;28;20117;-89
2021/01/15 01:58:31;;;;;;;21.70;12.52;;;;;;;-1.22;76.63;95663.78;4980316;28;20050;-90
2021/01/15 02:01:00;;;;;;;21.70;13.20;;;;;;;-0.95;76.97;95685.19;4980199;28;20034;-90
2021/01/15 02:03:25;;;;;;;20.48;13.05;;;;;;;-1.19;75.88;95653.06;4988144;28;20027;-90
2021/01/15 02:05:51;;;;;;;20.15;12.38;;;;;;;-1.24;75.80;95647.41;4984571;28;20023;-90
2021/01/15 02:08:16;;;;;;;15.52;9.88;;;;;;;-1.33;74.83;95626.56;5003847;28;20032;-89
2021/01/15 02:10:48;;;;;;;15.13;8.35;;;;;;;-1.30;72.58;95631.09;5008053;28;20045;-90
2021/01/15 02:13:17;;;;;;;18.88;11.02;;;;;;;-0.84;73.80;95696.50;4999291;28;20041;-89
2021/01/15 02:16:01;;;;;;;14.23;8.13;;;;;;;-1.09;100.00;95670.09;4994608;28;20496;-89
2021/01/15 02:19:09;;;;;;;13.20;8.02;;;;;;;-0.64;72.03;95705.41;4999434;28;20030;-90
2021/01/15 02:21:46;;;;;;;10.57;6.88;;;;;;;-0.64;72.03;95705.41;4988805;28;20330;-90
2021/01/15 02:27:43;;;;;;;12.07;7.13;;;;;;;-145.61;100.00;68426.72;5000355;28;20041;-90
2021/01/15 02:30:11;;;;;;;12.43;7.20;;;;;;;-145.61;100.00;68426.72;4998459;28;20034;-89
2021/01/15 02:32:48;;;;;;;14.82;8.50;;;;;;;-145.61;100.00;68426.72;4990512;28;20050;-89
2021/01/15 02:35:22;;;;;;;14.60;8.90;;;;;;;-145.61;100.00;68426.72;5002727;28;20415;-91
2021/01/15 02:38:00;;;;;;;14.48;8.93;;;;;;;-145.61;100.00;68426.72;4999143;28;20085;-90
2021/01/15 02:40:35;;;;;;;12.60;8.40;;;;;;;-145.61;100.00;68426.72;4983391;28;20121;-90
2021/01/15 02:43:03;;;;;;;11.35;7.53;;;;;;;-145.61;100.00;68426.72;4979630;28;20023;-90
2021/01/15 02:45:29;;;;;;;10.60;7.03;;;;;;;-145.61;100.00;68426.72;4986667;28;20105;-90
2021/01/15 02:47:59;;;;;;;11.23;7.00;;;;;;;-145.61;100.00;68426.72;4979688;28;20473;-90
2021/01/15 02:50:26;;;;;;;9.10;5.80;;;;;;;-145.61;100.00;68426.72;4987507;28;20031;-90
2021/01/15 02:52:56;;;;;;;9.93;6.82;;;;;;;-145.61;100.00;68426.72;4979338;28;20026;-90
2021/01/15 02:55:23;;;;;;;12.02;7.32;;;;;;;-145.61;100.00;68426.72;4979431;28;20166;-89
2021/01/15 02:57:48;;;;;;;10.13;7.03;;;;;;;-145.61;100.00;68426.72;4979121;28;20033;-89
2021/01/15 03:00:16;;;;;;;11.23;7.20;;;;;;;-145.61;100.00;68426.72;4979410;28;20034;-90
2021/01/15 03:02:45;;;;;;;11.27;7.28;;;;;;;-145.61;100.00;68426.72;4980070;28;20490;-89
2021/01/15 03:05:19;;;;;;;11.50;7.43;;;;;;;-145.61;100.00;68426.72;4998618;28;20063;-90
2021/01/15 03:07:46;;;;;;;11.43;7.28;;;;;;;-145.61;100.00;68426.72;4982766;28;20038;-90
2021/01/15 03:10:13;;;;;;;12.02;7.82;;;;;;;-145.61;100.00;68426.72;4980040;28;20050;-90
2021/01/15 03:12:43;;;;;;;11.02;7.40;;;;;;;-145.61;100.00;68426.72;4978849;28;20049;-89
2021/01/15 03:15:10;;;;;;;12.90;8.13;;;;;;;-145.61;100.00;68426.72;4998252;28;20038;-89
2021/01/15 03:17:40;;;;;;;12.05;7.68;;;;;;;-145.61;100.00;68426.72;5010848;28;20418;-90
2021/01/15 03:20:06;;;;;;;12.00;7.85;;;;;;;-145.61;100.00;68426.72;5003316;28;20042;-89
2021/01/15 03:22:33;;;;;;;12.70;8.35;;;;;;;-145.61;100.00;68426.72;4992380;28;20019;-89
2021/01/15 03:25:00;;;;;;;13.57;7.97;;;;;;;-145.61;100.00;68426.72;4997978;28;20029;-90
2021/01/15 03:27:55;;;;;;;12.00;7.15;;;;;;;-145.61;100.00;68426.72;4997213;28;20037;-89
2021/01/15 03:30:23;;;;;;;12.77;8.00;;;;;;;-145.61;100.00;68426.72;4975255;28;20129;-90
2021/01/15 03:32:54;;;;;;;14.15;8.20;;;;;;;-145.61;100.00;68426.72;4997668;28;20060;-90
2021/01/15 03:35:23;;;;;;;13.52;8.25;;;;;;;-145.61;100.00;68426.72;4997848;28;20042;-90
2021/01/15 03:37:55;;;;;;;11.75;7.65;;;;;;;-145.61;100.00;68426.72;4998782;28;20038;-90
2021/01/15 03:40:21;;;;;;;11.45;7.38;;;;;;;-145.61;100.00;68426.72;4997872;28;20307;-90
2021/01/15 03:42:47;;;;;;;12.82;8.10;;;;;;;-145.61;100.00;68426.72;4998898;28;20026;-88
2021/01/15 03:45:14;;;;;;;10.88;7.57;;;;;;;-145.61;100.00;68426.72;5003131;28;20023;-90
2021/01/15 03:47:39;;;;;;;14.23;8.05;;;;;;;-145.61;100.00;68426.72;4985441;28;20083;-89
2021/01/15 03:50:06;;;;;;;11.68;7.97;;;;;;;-145.61;100.00;68426.72;4989040;28;20410;-90
2021/01/15 03:52:31;;;;;;;10.88;6.82;;;;;;;-145.61;100.00;68426.72;4997433;28;20030;-89
2021/01/15 03:54:57;;;;;;;11.57;7.60;;;;;;;-145.61;100.00;68426.72;4997396;28;20077;-90
2021/01/15 03:57:22;;;;;;;9.43;6.55;;;;;;;-145.61;100.00;68426.72;4997507;28;20108;-89
2021/01/15 03:59:47;;;;;;;9.77;6.78;;;;;;;-145.61;100.00;68426.72;4997618;28;20026;-89
2021/01/15 04:02:13;;;;;;;11.07;7.13;;;;;;;-145.61;100.00;68426.72;5010004;28;20027;-89
2021/01/15 04:04:39;;;;;;;11.40;7.40;;;;;;;-145.61;100.00;68426.72;4979683;28;20041;-90
2021/01/15 04:07:04;;;;;;;10.40;7.38;;;;;;;-145.61;100.00;68426.72;4978581;28;20038;-90
2021/01/15 04:09:30;;;;;;;11.52;7.45;;;;;;;-145.61;100.00;68426.72;4979074;28;20038;-90
2021/01/15 04:11:55;;;;;;;11.23;7.45;;;;;;;-145.61;100.00;68426.72;4978130;28;20077;-89
2021/01/15 04:14:21;;;;;;;11.07;6.82;;;;;;;-145.61;100.00;68426.72;4977902;28;20038;-90
2021/01/15 04:16:51;;;;;;;12.40;7.40;;;;;;;-145.61;100.00;68426.72;4996638;28;20029;-89
2021/01/15 04:19:16;;;;;;;13.07;7.30;;;;;;;-145.61;100.00;68426.72;5016958;28;20309;-89
2021/01/15 04:21:42;;;;;;;12.27;8.10;;;;;;;-145.61;100.00;68426.72;5009699;28;20022;-90
2021/01/15 04:24:07;;;;;;;11.82;7.45;;;;;;;-145.61;100.00;68426.72;5004615;28;20025;-90
2021/01/15 04:26:33;;;;;;;11.45;7.40;;;;;;;-145.61;100.00;68426.72;5016468;28;20414;-90
2021/01/15 04:28:58;;;;;;;14.73;8.85;;;;;;;-145.61;100.00;68426.72;4995651;28;20022;-90
2021/01/15 04:31:23;;;;;;;12.70;8.20;;;;;;;-145.61;100.00;68426.72;4977493;28;20026;-90
2021/01/15 04:33:49;;;;;;;11.98;7.93;;;;;;;-145.61;100.00;68426.72;4977367;28;20355;-89
2021/01/15 04:36:14;;;;;;;12.77;8.25;;;;;;;-145.61;100.00;68426.72;5002818;28;20030;-90
2021/01/15 04:38:41;;;;;;;14.25;8.70;;;;;;;-145.61;100.00;68426.72;5010684;28;20117;-90
2021/01/15 04:41:07;;;;;;;15.93;9.25;;;;;;;-145.61;100.00;68426.72;4980449;28;20061;-91
2021/01/15 04:43:35;;;;;;;14.55;9.15;;;;;;;-145.61;100.00;68426.72;4997823;28;20026;-90
2021/01/15 04:46:04;;;;;;;12.05;8.27;;;;;;;-145.61;100.00;68426.72;4996825;28;20026;-91
2021/01/15 04:48:33;;;;;;;15.20;8.73;;;;;;;-145.61;100.00;68426.72;4985877;28;20038;-90
2021/01/15 04:51:00;;;;;;;14.65;9.15;;;;;;;-145.61;100.00;68426.72;4988357;28;20427;-90
2021/01/15 04:53:29;;;;;;;12.82;8.40;;;;;;;-145.61;100.00;68426.72;4978574;28;20117;-91
2021/01/15 04:55:58;;;;;;;15.68;8.80;;;;;;;-145.61;100.00;68426.72;4978299;28;20033;-90
2021/01/15 04:58:25;;;;;;;14.15;8.85;;;;;;;-145.61;100.00;68426.72;5005304;28;20361;-90
2021/01/15 05:00:57;;;;;;;17.73;9.57;;;;;;;-145.61;100.00;68426.72;5000136;28;20081;-91
2021/01/15 05:03:26;;;;;;;16.50;9.27;;;;;;;-145.61;100.00;68426.72;4977303;28;20050;-91
2021/01/15 05:06:00;;;;;;;14.40;8.73;;;;;;;-145.61;100.00;68426.72;4977292;28;20094;-90
2021/01/15 05:08:27;;;;;;;16.65;8.57;;;;;;;-145.61;100.00;68426.72;4984922;28;20026;-90
2021/01/15 05:10:53;;;;;;;13.32;8.32;;;;;;;-145.61;100.00;68426.72;4986435;28;20038;-91
2021/01/15 05:13:18;;;;;;;14.55;8.43;;;;;;;-145.61;100.00;68426.72;4993915;28;20027;-90
2021/01/15 05:15:46;;;;;;;13.32;8.27;;;;;;;-145.61;100.00;68426.72;5006658;28;20369;-90
2021/01/15 05:18:14;;;;;;;13.68;9.48;;;;;;;-145.61;100.00;68426.72;5004967;28;20106;-90
2021/01/15 05:20:40;;;;;;;12.13;7.85;;;;;;;-145.61;100.00;68426.72;5000392;28;20029;-90
2021/01/15 05:23:07;;;;;;;13.40;8.50;;;;;;;-145.61;100.00;68426.72;4998167;28;20026;-90
2021/01/15 05:25:47;;;;;;;11.25;7.70;;;;;;;-145.61;100.00;68426.72;4980955;28;20034;-90
2021/01/15 05:28:17;;;;;;;14.52;8.00;;;;;;;-145.61;100.00;68426.72;4992853;28;20026;-90
2021/01/15 05:30:43;;;;;;;12.25;7.15;;;;;;;-145.61;100.00;68426.72;4999790;28;20025;-91
2021/01/15 05:33:14;;;;;;;13.07;8.23;;;;;;;-145.61;100.00;68426.72;4995334;28;20300;-90
2021/01/15 05:35:41;;;;;;;;;;;;;;;-145.61;100.00;68426.72;4997290;28;20034;-89
2021/01/15 05:38:07;;;;;;;11.68;7.07;;;;;;;-145.61;100.00;68426.72;5007142;28;20194;-90
2021/01/15 05:40:46;;;;;;;13.05;8.27;;;;;;;-145.61;100.00;68426.72;5005847;28;20319;-89
2021/01/15 05:43:32;;;;;;;11.27;7.25;;;;;;;-145.61;100.00;68426.72;4984313;28;20042;-89
2021/01/15 05:46:18;;;;;;;13.50;7.95;;;;;;;-145.61;100.00;68426.72;5012466;28;20410;-91
2021/01/15 05:48:49;;;;;;;10.55;7.22;;;;;;;-145.61;100.00;68426.72;5020225;28;20361;-90
2021/01/15 05:51:25;;;;;;;12.10;7.82;;;;;;;-145.61;100.00;68426.72;5004942;28;20096;-90
2021/01/15 05:53:50;;;;;;;10.02;6.97;;;;;;;-145.61;100.00;68426.72;5003558;28;20081;-90
2021/01/15 05:56:20;;;;;;;11.30;7.18;;;;;;;-145.61;100.00;68426.72;5000830;28;20366;-90
2021/01/15 05:59:15;;;;;;;14.60;9.07;;;;;;;-145.61;100.00;68426.72;4999807;28;20039;-90
2021/01/15 06:02:13;;;;;;;10.63;7.43;;;;;;;-145.61;100.00;68426.72;4999727;28;20034;-91
2021/01/15 06:04:39;;;;;;;14.13;9.05;;;;;;;-145.61;100.00;68426.72;4978875;28;20042;-91
2021/01/15 06:07:10;;;;;;;14.82;9.10;;;;;;;-145.61;100.00;68426.72;4999759;28;20034;-93
2021/01/15 06:09:37;;;;;;;14.00;8.52;;;;;;;-145.61;100.00;68426.72;4999767;28;20034;-93
2021/01/15 06:12:11;;;;;;;12.02;7.75;;;;;;;-145.61;100.00;68426.72;5007935;28;20026;-94
2021/01/15 06:14:49;;;;;;;14.90;8.73;;;;;;;-145.61;100.00;68426.72;5002851;28;20026;-92
2021/01/15 06:17:21;;;;;;;12.85;8.48;;;;;;;-145.61;100.00;68426.72;4980206;28;20458;-92
2021/01/15 06:19:50;;;;;;;13.00;8.68;;;;;;;-145.61;100.00;68426.72;4980001;28;20491;-93
2021/01/15 06:22:54;;;;;;;16.25;8.80;;;;;;;-145.61;100.00;68426.72;4980064;28;20423;-92
2021/01/15 06:25:36;;;;;;;14.93;9.07;;;;;;;-145.61;100.00;68426.72;4980212;28;20041;-90
2021/01/15 06:28:07;;;;;;;15.82;9.73;;;;;;;-145.61;100.00;68426.72;5000218;28;20029;-93
2021/01/15 06:30:35;;;;;;;18.13;10.88;;;;;;;-145.61;100.00;68426.72;4999635;28;20030;-94
2021/01/15 06:33:14;;;;;;;17.65;10.23;;;;;;;-145.61;100.00;68426.72;4985314;28;20047;-95
2021/01/15 06:35:46;;;;;;;16.50;10.00;;;;;;;-145.61;100.00;68426.72;5001907;28;20042;-94
2021/01/15 06:38:13;;;;;;;15.10;9.35;;;;;;;-145.61;100.00;68426.72;5004593;28;20023;-94
2021/01/15 06:40:43;;;;;;;20.73;14.02;;;;;;;-145.61;100.00;68426.72;5004481;28;20065;-93
2021/01/15 06:43:24;;;;;;;17.30;11.45;;;;;;;-145.61;100.00;68426.72;5000220;28;20026;-92
2021/01/15 06:45:55;;;;;;;17.15;11.18;;;;;;;-145.61;100.00;68426.72;4988660;28;20031;-93
2021/01/15 06:48:26;;;;;;;16.17;11.45;;;;;;;-145.61;100.00;68426.72;4986317;28;20030;-93
2021/01/15 06:50:53;;;;;;;18.63;12.23;;;;;;;-145.61;100.00;68426.72;4993346;28;20037;-93
2021/01/15 06:53:27;;;;;;;17.40;11.85;;;;;;;-145.61;100.00;68426.72;4994644;28;20888;-93
2021/01/15 06:56:01;;;;;;;20.40;11.90;;;;;;;-145.61;100.00;68426.72;4988471;28;20032;-93
2021/01/15 06:58:30;;;;;;;15.95;10.80;;;;;;;-145.61;100.00;68426.72;4997705;28;20018;-91
2021/01/15 07:01:36;;;;;;;16.13;10.68;;;;;;;-145.61;100.00;68426.72;5002436;28;20034;-96
2021/01/15 07:04:28;;;;;;;18.13;11.23;;;;;;;-145.61;100.00;68426.72;5002118;28;20050;-94
2021/01/15 07:07:14;;;;;;;19.23;12.45;;;;;;;-145.61;100.00;68426.72;5000230;28;20019;-94
2021/01/15 07:09:42;;;;;;;19.33;11.95;;;;;;;-145.61;100.00;68426.72;4999603;28;20053;-94
2021/01/15 07:12:13;;;;;;;17.85;11.52;;;;;;;-145.61;100.00;68426.72;5000052;28;20036;-92
2021/01/15 07:14:55;;;;;;;18.45;11.90;;;;;;;-145.61;100.00;68426.72;4999392;28;20069;-94
2021/01/15 07:17:37;;;;;;;20.95;12.85;;;;;;;-145.61;100.00;68426.72;4989339;28;20363;-93
2021/01/15 07:20:16;;;;;;;19.42;12.63;;;;;;;-145.61;100.00;68426.72;4979314;28;20094;-92
2021/01/15 07:22:59;;;;;;;18.80;11.82;;;;;;;-145.61;100.00;68426.72;5011239;28;20080;-92
2021/01/15 07:25:25;;;;;;;18.98;10.88;;;;;;;-145.61;100.00;68426.72;4985589;28;20030;-92
2021/01/15 07:27:51;;;;;;;15.82;11.35;;;;;;;-145.61;100.00;68426.72;4998348;28;20029;-94
2021/01/15 07:30:20;;;;;;;17.30;11.18;;;;;;;-145.61;100.00;68426.72;4998280;28;20069;-93
2021/01/15 07:32:48;;;;;;;17.70;11.20;;;;;;;-145.61;100.00;68426.72;4981450;28;20051;-93
2021/01/15 07:35:15;;;;;;;20.67;11.60;;;;;;;-145.61;100.00;68426.72;4979300;28;20031;-92
2021/01/15 07:37:41;;;;;;;15.15;10.02;;;;;;;-145.61;100.00;68426.72;4978795;28;20086;-94
2021/01/15 07:40:15;;;;;;;17.90;11.20;;;;;;;-145.61;100.00;68426.72;4997468;28;20349;-92
2021/01/15 07:42:51;;;;;;;16.85;10.45;;;;;;;-145.61;100.00;68426.72;4998250;28;20034;-94
2021/01/15 07:45:25;;;;;;;19.35;12.27;;;;;;;-145.61;100.00;68426.72;4997298;28;20026;-92
2021/01/15 07:47:51;;;;;;;17.67;11.63;;;;;;;-145.61;100.00;68426.72;4979202;28;20031;-92
2021/01/15 07:50:30;;;;;;;14.65;9.88;;;;;;;-145.61;100.00;68426.72;4978636;28;20034;-92
2021/01/15 07:53:14;;;;;;;32.45;19.88;;;;;;;-145.61;100.00;68426.72;4987021;28;20042;-91
2021/01/15 07:55:59;;;;;;;47.75;29.88;;;;;;;-145.61;100.00;68426.72;4980829;28;20030;-94
2021/01/15 07:58:45;;;;;;;25.77;16.58;;;;;;;-145.61;100.00;68426.72;4979266;28;20129;-91
2021/01/15 08:01:16;;;;;;;25.85;17.70;;;;;;;-145.61;100.00;68426.72;4988091;28;20050;-94
2021/01/15 08:03:43;;;;;;;27.27;17.73;;;;;;;-145.61;100.00;68426.72;4997876;28;20072;-95
2021/01/15 08:06:16;;;;;;;31.10;21.02;;;;;;;-145.61;100.00;68426.72;5001740;28;20022;-89
2021/01/15 08:09:06;;;;;;;20.80;13.50;;;;;;;-145.61;100.00;68426.72;4987872;28;20026;-93
2021/01/15 08:11:33;;;;;;;19.58;12.77;;;;;;;-145.61;100.00;68426.72;4994794;28;20034;-91
2021/01/15 08:14:23;;;;;;;18.02;12.02;;;;;;;-145.61;100.00;68426.72;4980974;28;20037;-91
2021/01/15 08:16:49;;;;;;;25.23;17.60;;;;;;;-145.61;100.00;68426.72;4984160;28;20462;-92
2021/01/15 08:19:27;;;;;;;23.45;15.25;;;;;;;-145.61;100.00;68426.72;4979996;28;20033;-90
2021/01/15 08:21:54;;;;;;;20.45;13.40;;;;;;;-145.61;100.00;68426.72;4995317;28;20046;-90
2021/01/15 08:24:22;;;;;;;21.35;13.20;;;;;;;-145.61;100.00;68426.72;5000685;28;20041;-91
2021/01/15 08:26:52;;;;;;;22.88;14.45;;;;;;;-145.61;100.00;68426.72;5000546;28;20048;-91
2021/01/15 08:29:22;;;;;;;20.35;12.70;;;;;;;-145.61;100.00;68426.72;4999608;28;20054;-91
2021/01/15 08:31:56;;;;;;;22.53;14.60;;;;;;;-145.61;100.00;68426.72;5009251;28;20018;-94
2021/01/15 08:34:22;;;;;;;21.15;12.65;;;;;;;-145.61;100.00;68426.72;4987869;28;20038;-91
2021/01/15 08:36:56;;;;;;;20.45;12.45;;;;;;;-145.61;100.00;68426.72;4992201;28;20323;-93
2021/01/15 08:39:21;;;;;;;19.40;12.27;;;;;;;-145.61;100.00;68426.72;5009991;28;20018;-89
2021/01/15 08:42:14;;;;;;;17.75;10.23;;;;;;;-145.61;100.00;68426.72;4985143;28;20045;-91
2021/01/15 08:44:40;;;;;;;10.65;6.55;;;;;;;-145.61;100.00;68426.72;4984522;28;20030;-91
2021/01/15 08:47:11;;;;;;;10.23;6.82;;;;;;;-145.61;100.00;68426.72;4990841;28;20030;-93
2021/01/15 08:49:37;;;;;;;;;;;;;;;-145.61;100.00;68426.72;4996890;28;20034;-94
2021/01/15 08:52:04;;;;;;;10.27;7.55;;;;;;;-145.61;100.00;68426.72;4996822;28;19917;-93
2021/01/15 08:54:32;;;;;;;14.10;6.70;;;;;;;-145.61;100.00;68426.72;4996591;28;20446;-93
2021/01/15 08:57:00;;;;;;;13.82;9.35;;;;;;;-145.61;100.00;68426.72;4991932;28;20050;-94
2021/01/15 08:59:33;;;;;;;12.77;9.07;;;;;;;-145.61;100.00;68426.72;4987714;28;20037;-94
2021/01/15 09:06:21;;;;;;;9.40;5.03;;;;;;;-145.61;100.00;68426.72;4919566;29;20091;-95
2021/01/15 09:08:48;;;;;;;8.00;5.30;;;;;;;-145.61;100.00;68426.72;4969442;28;20387;-94
2021/01/15 09:11:14;;;;;;;10.77;5.70;;;;;;;-145.61;100.00;68426.72;4983599;28;20037;-95
2021/01/15 09:13:40;;;;;;;8.20;5.50;;;;;;;-145.61;100.00;68426.72;4997103;28;20031;-96
2021/01/15 09:16:05;;;;;;;7.95;5.30;;;;;;;-145.61;100.00;68426.72;4997278;28;20077;-95
2021/01/15 09:18:31;;;;;;;10.77;6.22;;;;;;;-145.61;100.00;68426.72;4997317;28;20030;-94
2021/01/15 09:20:56;;;;;;;8.65;5.22;;;;;;;-145.61;100.00;68426.72;4998189;28;20076;-95
2021/01/15 09:23:22;;;;;;;7.63;5.15;;;;;;;-145.61;100.00;68426.72;4996969;28;20402;-94
2021/01/15 09:25:47;;;;;;;10.88;6.22;;;;;;;-145.61;100.00;68426.72;4980432;28;20027;-93
2021/01/15 09:28:13;;;;;;;8.45;5.70;;;;;;;-145.61;100.00;68426.72;4995692;28;20037;-93
2021/01/15 09:30:42;;;;;;;10.02;5.60;;;;;;;-145.61;100.00;68426.72;4998102;28;20054;-94
2021/01/15 09:33:07;;;;;;;7.88;5.93;;;;;;;-145.61;100.00;68426.72;4999744;28;20053;-94
2021/01/15 09:35:33;;;;;;;9.95;5.20;;;;;;;-145.61;100.00;68426.72;4999363;28;20031;-95
2021/01/15 09:37:58;;;;;;;8.07;5.10;;;;;;;-145.61;100.00;68426.72;4999133;28;20022;-96
2021/01/15 09:40:24;;;;;;;9.15;5.68;;;;;;;-145.61;100.00;68426.72;4999220;28;20080;-94
2021/01/15 09:42:50;;;;;;;9.68;5.70;;;;;;;-145.61;100.00;68426.72;4998947;28;20026;-93
2021/01/15 09:45:16;;;;;;;10.40;5.85;;;;;;;-145.61;100.00;68426.72;4994373;28;20648;-92
2021/01/15 09:47:45;;;;;;;8.70;4.75;;;;;;;-145.61;100.00;68426.72;4997874;28;20058;-92
2021/01/15 09:50:11;;;;;;;8.60;5.55;;;;;;;-145.61;100.00;68426.72;4997930;28;20226;-92
2021/01/15 09:52:37;;;;;;;7.88;5.30;;;;;;;-145.61;100.00;68426.72;4995272;28;20150;-91
2021/01/15 09:55:03;;;;;;;6.75;4.72;;;;;;;-145.61;100.00;68426.72;4980293;28;20440;-92
2021/01/15 09:57:29;;;;;;;8.15;5.05;;;;;;;-145.61;100.00;68426.72;4995735;28;20037;-92
2021/01/15 09:59:55;;;;;;;7.72;5.00;;;;;;;-145.61;100.00;68426.72;4989850;28;20022;-91
2021/01/15 10:02:20;;;;;;;7.72;5.30;;;;;;;-145.61;100.00;68426.72;4980839;28;20304;-92
2021/01/15 10:04:45;;;;;;;8.75;5.68;;;;;;;-145.61;100.00;68426.72;4996556;28;20077;-90
2021/01/15 10:07:11;;;;;;;10.68;5.65;;;;;;;-145.61;100.00;68426.72;4981956;28;20058;-92
2021/01/15 10:09:37;;;;;;;9.50;5.55;;;;;;;-145.61;100.00;68426.72;4988640;28;20026;-91
2021/01/15 10:12:02;;;;;;;8.07;5.30;;;;;;;-145.61;100.00;68426.72;4980141;28;20026;-90
2021/01/15 10:14:28;;;;;;;7.05;5.28;;;;;;;-145.61;100.00;68426.72;4981963;28;20039;-90
2021/01/15 10:16:54;;;;;;;8.07;5.53;;;;;;;-145.61;100.00;68426.72;4998374;28;20029;-90
2021/01/15 10:19:20;;;;;;;10.68;6.43;;;;;;;-145.61;100.00;68426.72;4997851;28;20477;-93
2021/01/15 10:21:46;;;;;;;9.02;5.57;;;;;;;-145.61;100.00;68426.72;4999222;28;20030;-93
2021/01/15 10:24:13;;;;;;;12.15;7.53;;;;;;;-145.61;100.00;68426.72;4985640;28;20022;-94
2021/01/15 10:26:39;;;;;;;9.52;5.97;;;;;;;-145.61;100.00;68426.72;4985339;28;20026;-94
2021/01/15 10:29:10;;;;;;;17.05;9.70;;;;;;;-145.61;100.00;68426.72;4986339;28;20491;-92
2021/01/15 10:31:40;;;;;;;9.93;5.90;;;;;;;-145.61;100.00;68426.72;4990738;28;20038;-93
2021/01/15 10:34:06;;;;;;;9.15;6.03;;;;;;;-145.61;100.00;68426.72;4986749;28;20050;-92
2021/01/15 10:36:31;;;;;;;10.05;6.18;;;;;;;-145.61;100.00;68426.72;4989004;28;20041;-89
2021/01/15 10:38:57;;;;;;;8.60;6.18;;;;;;;-145.61;100.00;68426.72;4990870;28;20048;-89
2021/01/15 10:41:27;;;;;;;10.15;6.35;;;;;;;-145.61;100.00;68426.72;4990673;28;20034;-95
2021/01/15 10:43:53;;;;;;;9.10;6.03;;;;;;;-145.61;100.00;68426.72;5001069;28;20303;-95
2021/01/15 10:46:36;;;;;;;8.50;5.40;;;;;;;-145.61;100.00;68426.72;4999797;28;20027;-96
2021/01/15 10:49:54;;;;;;;6.32;4.10;;;;;;;-145.61;100.00;68426.72;4998501;28;20054;-94
2021/01/15 10:52:19;;;;;;;4.50;3.38;;;;;;;-145.61;100.00;68426.72;4999173;28;20026;-95
2021/01/15 10:55:16;;;;;;;6.47;2.92;;;;;;;-145.61;100.00;68426.72;4995981;28;20022;-95
2021/01/15 10:57:41;;;;;;;5.30;3.20;;;;;;;-145.61;100.00;68426.72;4991054;28;20026;-95
2021/01/15 11:00:07;;;;;;;5.78;3.17;;;;;;;-145.61;100.00;68426.72;5000338;28;20457;-96
2021/01/15 11:02:33;;;;;;;4.65;3.10;;;;;;;-145.61;100.00;68426.72;5000717;28;20026;-95
2021/01/15 11:04:58;;;;;;;6.18;3.75;;;;;;;-145.61;100.00;68426.72;4987492;28;20015;-94
2021/01/15 11:07:23;;;;;;;4.95;3.42;;;;;;;-145.61;100.00;68426.72;4981275;28;20034;-96
2021/01/15 11:09:49;;;;;;;5.30;3.90;;;;;;;-145.61;100.00;68426.72;4981275;28;20027;-95
2021/01/15 11:12:14;;;;;;;7.57;4.32;;;;;;;-145.61;100.00;68426.72;4992198;28;20077;-93
2021/01/15 11:14:39;;;;;;;7.10;4.20;;;;;;;-145.61;100.00;68426.72;4989999;28;20030;-92
2021/01/15 11:17:05;;;;;;;6.07;3.70;;;;;;;-145.61;100.00;68426.72;4989368;28;20085;-93
2021/01/15 11:19:31;;;;;;;5.65;3.90;;;;;;;-145.61;100.00;68426.72;4985209;28;20030;-94
2021/01/15 11:21:58;;;;;;;6.05;3.58;;;;;;;-145.61;100.00;68426.72;5001439;28;20032;-94
2021/01/15 11:24:23;;;;;;;4.60;3.40;;;;;;;-145.61;100.00;68426.72;4999395;28;20049;-94
2021/01/15 11:26:49;;;;;;;5.53;4.05;;;;;;;-145.61;100.00;68426.72;4987288;28;20030;-92
2021/01/15 11:29:15;;;;;;;5.95;4.30;;;;;;;-145.61;100.00;68426.72;4987422;28;20030;-92